Time;durP1;ratioP1;P1;durP2;ratioP2;P2;SDS_P1;SDS_P2;PMS_P1;PMS_P2;Temp;Humidity;BMP_temperature;BMP_pressure;BME280_temperature;BME280_humidity;BME280_pressure;Samples;Min_cycle;Max_cycle;Signal;HPM_P1;HPM_P2
2023/10/20 00:00:54;;;;;;;13.00;8.07;;;13.70;99.90;;;13.76;65.04;94547.19;5071590;28;20820;-57
2023/10/20 00:03:22;;;;;;;12.90;9.03;;;13.60;99.90;;;13.75;65.57;94532.31;5075926;28;20462;-59
2023/10/20 00:05:50;;;;;;;12.50;8.50;;;13.60;99.90;;;13.74;65.56;94541.22;5075985;28;20487;-56
2023/10/20 00:08:17;;;;;;;10.20;8.60;;;13.60;99.90;;;13.72;65.31;94528.19;5070971;28;20443;-59
2023/10/20 00:10:44;;;;;;;11.00;8.43;;;13.60;99.90;;;13.73;65.67;94527.19;5073674;28;20451;-56
2023/10/20 00:13:13;;;;;;;17.83;9.03;;;13.60;99.90;;;13.74;66.18;94523.56;5071734;28;20461;-56
2023/10/20 00:15:40;;;;;;;11.17;8.63;;;13.60;99.90;;;13.74;65.57;94528.00;5075878;28;20483;-58
2023/10/20 00:18:08;;;;;;;10.50;8.10;;;13.60;99.90;;;13.72;65.73;94527.34;5073440;28;20451;-56
2023/10/20 00:20:36;;;;;;;11.73;9.00;;;13.60;99.90;;;13.71;65.35;94528.34;5072990;28;20552;-59
2023/10/20 00:23:03;;;;;;;15.23;9.73;;;13.60;99.90;;;13.68;65.98;94526.03;5072260;28;20462;-59
2023/10/20 00:25:31;;;;;;;11.70;8.73;;;13.60;99.90;;;13.68;66.17;94524.25;5077321;28;20523;-56
2023/10/20 00:27:58;;;;;;;13.20;8.13;;;13.50;99.90;;;13.68;66.49;94516.31;5072457;28;20899;-56
2023/10/20 00:30:27;;;;;;;9.93;8.93;;;13.50;99.90;;;13.68;66.42;94520.75;5073062;28;20447;-57
2023/10/20 00:32:54;;;;;;;8.67;7.80;;;13.50;99.90;;;13.66;66.48;94509.53;5071337;28;20482;-60
2023/10/20 00:35:22;;;;;;;10.47;8.53;;;13.50;99.90;;;13.64;66.31;94509.69;5073095;28;20490;-57
2023/10/20 00:37:51;;;;;;;20.43;8.80;;;13.50;99.90;;;13.61;65.99;94496.81;5070699;28;20473;-57
2023/10/20 00:40:19;;;;;;;10.70;8.20;;;13.50;99.90;;;13.58;66.22;94503.25;5073662;28;20455;-57
2023/10/20 00:42:47;;;;;;;14.97;9.97;;;13.50;99.90;;;13.58;66.30;94505.06;5075492;28;20474;-56
2023/10/20 00:45:14;;;;;;;11.30;8.70;;;13.40;99.90;;;13.58;66.21;94499.78;5073220;28;20503;-56
2023/10/20 00:47:44;;;;;;;9.77;8.77;;;13.40;99.90;;;13.58;66.43;94497.16;5070415;28;20525;-57
2023/10/20 00:50:13;;;;;;;11.57;9.07;;;13.40;99.90;;;13.56;66.34;94507.88;5075939;28;20439;-60
2023/10/20 00:52:42;;;;;;;13.27;9.57;;;13.40;99.90;;;13.56;66.79;94499.97;5079381;28;20475;-57
2023/10/20 00:55:11;;;;;;;12.00;9.77;;;13.40;99.90;;;13.58;66.84;94515.66;5079316;28;20490;-57
2023/10/20 00:57:38;;;;;;;10.93;9.17;;;13.50;99.90;;;13.58;66.98;94511.19;5078724;28;20470;-60
2023/10/20 01:00:09;;;;;;;12.10;8.67;;;13.40;99.90;;;13.57;66.52;94506.06;5082015;28;20455;-59
2023/10/20 01:02:37;;;;;;;10.43;9.00;;;13.40;99.90;;;13.54;66.63;94504.59;5077972;28;20615;-56
2023/10/20 01:05:06;;;;;;;10.57;9.57;;;13.40;99.90;;;13.52;66.26;94506.56;5080603;28;20545;-56
2023/10/20 01:07:33;;;;;;;11.00;8.00;;;13.40;99.90;;;13.48;66.65;94501.78;5078440;28;20471;-56
2023/10/20 01:10:04;;;;;;;11.87;8.73;;;13.40;99.90;;;13.47;66.78;94498.31;5079791;28;20459;-60
2023/10/20 01:12:32;;;;;;;12.67;9.30;;;13.30;99.90;;;13.47;66.31;94492.22;5077789;28;20475;-57
2023/10/20 01:14:59;;;;;;;13.63;9.20;;;13.30;99.90;;;13.45;66.94;94498.50;5076181;28;20894;-56
2023/10/20 01:17:27;;;;;;;11.73;9.00;;;13.30;99.90;;;13.44;66.35;94490.72;5076707;28;20540;-59
2023/10/20 01:19:55;;;;;;;10.20;8.80;;;13.30;99.90;;;13.43;66.43;94494.34;5075440;28;20455;-57
2023/10/20 01:22:24;;;;;;;15.13;8.70;;;13.30;99.90;;;13.41;66.50;94497.16;5078705;28;20545;-60
2023/10/20 01:24:53;;;;;;;10.37;9.37;;;13.30;99.90;;;13.39;66.66;94491.22;5079344;28;20450;-57
2023/10/20 01:27:20;;;;;;;9.33;8.40;;;13.30;99.90;;;13.40;66.86;94484.13;5079480;28;20520;-56
2023/10/20 01:29:48;;;;;;;9.30;8.47;;;13.20;99.90;;;13.39;67.31;94483.31;5079092;28;20459;-60
2023/10/20 01:32:15;;;;;;;13.80;9.97;;;13.30;99.90;;;13.38;66.70;94476.34;5077803;28;21646;-54
2023/10/20 01:34:42;;;;;;;12.03;8.67;;;13.30;99.90;;;13.38;67.00;94480.81;5078809;28;20478;-55
2023/10/20 01:37:11;;;;;;;13.13;9.00;;;13.20;99.90;;;13.37;67.34;94468.59;5078614;28;20532;-56
2023/10/20 01:39:38;;;;;;;11.33;9.90;;;13.20;99.90;;;13.34;67.08;94472.41;5079551;28;20447;-56
2023/10/20 01:42:07;;;;;;;15.40;9.30;;;13.20;99.90;;;13.32;67.33;94470.91;5081513;28;20474;-57
2023/10/20 01:44:35;;;;;;;14.77;9.70;;;13.20;99.90;;;13.27;66.95;94461.66;5077106;28;20537;-59
2023/10/20 01:47:02;;;;;;;10.70;9.50;;;13.20;99.90;;;13.25;66.98;94468.91;5075769;28;20515;-60
2023/10/20 01:49:30;;;;;;;17.30;10.37;;;13.10;99.90;;;13.22;67.09;94471.06;5078718;28;20470;-59
2023/10/20 01:51:57;;;;;;;14.53;11.10;;;13.10;99.90;;;13.18;66.82;94467.91;5073949;28;20529;-60
2023/10/20 01:54:25;;;;;;;12.33;10.20;;;13.10;99.90;;;13.17;67.56;94478.69;5075600;28;20489;-59
2023/10/20 01:56:52;;;;;;;15.67;10.07;;;13.00;99.90;;;13.14;67.51;94487.75;5075812;28;20490;-59
2023/10/20 01:59:21;;;;;;;13.10;9.60;;;13.00;99.90;;;13.13;67.16;94483.44;5072140;28;20451;-56
2023/10/20 02:01:48;;;;;;;10.70;9.60;;;13.00;99.90;;;13.12;67.81;94481.81;5076383;28;20470;-56
2023/10/20 02:04:15;;;;;;;12.83;10.40;;;13.00;99.90;;;13.09;68.03;94488.25;5077120;28;21005;-58
2023/10/20 02:06:43;;;;;;;16.10;9.87;;;13.00;99.90;;;13.09;68.05;94482.16;5074856;28;20560;-58
2023/10/20 02:09:10;;;;;;;15.03;10.67;;;13.00;99.90;;;13.06;67.81;94487.75;5077115;28;20538;-56
2023/10/20 02:11:38;;;;;;;11.30;9.87;;;13.00;99.90;;;13.03;67.62;94474.88;5079213;28;20478;-57
2023/10/20 02:14:05;;;;;;;17.00;10.33;;;12.90;99.90;;;12.98;67.37;94475.38;5074218;28;20512;-57
2023/10/20 02:16:34;;;;;;;13.93;10.27;;;12.90;99.90;;;12.95;67.71;94470.41;5078244;28;20559;-57
2023/10/20 02:19:01;;;;;;;14.77;9.93;;;12.80;99.90;;;12.91;67.69;94483.09;5078186;28;20458;-55
2023/10/20 02:21:30;;;;;;;18.00;10.80;;;12.80;99.90;;;12.90;67.85;94481.47;5078265;28;20536;-59
2023/10/20 02:23:58;;;;;;;13.57;9.73;;;12.80;99.90;;;12.88;68.00;94485.25;5080627;28;20450;-55
2023/10/20 02:26:25;;;;;;;14.53;10.30;;;12.80;99.90;;;12.87;67.94;94488.88;5078586;28;20462;-56
2023/10/20 02:28:52;;;;;;;13.03;9.77;;;12.80;99.90;;;12.84;68.99;94482.13;5076685;28;20443;-56
2023/10/20 02:31:20;;;;;;;10.97;9.50;;;12.70;99.90;;;12.84;68.52;94483.91;5080983;28;20493;-55
2023/10/20 02:33:48;;;;;;;13.10;10.93;;;12.70;99.90;;;12.81;67.98;94485.09;5080325;28;20485;-59
2023/10/20 02:36:19;;;;;;;13.03;10.50;;;12.70;99.90;;;12.80;68.52;94475.50;5080355;28;20497;-57
2023/10/20 02:38:47;;;;;;;15.83;10.37;;;12.70;99.90;;;12.78;68.43;94469.59;5080082;28;20447;-57
2023/10/20 02:41:15;;;;;;;15.70;10.93;;;12.70;99.90;;;12.77;68.66;94473.19;5079779;28;20470;-55
2023/10/20 02:43:43;;;;;;;16.63;11.07;;;12.70;99.90;;;12.74;68.59;94478.81;5080432;28;20540;-60
2023/10/20 02:46:12;;;;;;;14.53;11.73;;;12.60;99.90;;;12.71;68.79;94474.66;5080281;28;20510;-59
2023/10/20 02:48:39;;;;;;;14.90;10.60;;;12.60;99.90;;;12.67;68.54;94470.72;5079806;28;20575;-61
2023/10/20 02:51:11;;;;;;;24.77;11.83;;;12.60;99.90;;;12.68;68.84;94482.09;5079852;28;20470;-60
2023/10/20 02:53:39;;;;;;;20.03;12.53;;;12.60;99.90;;;12.66;68.67;94481.44;5079216;28;20460;-56
2023/10/20 02:56:12;;;;;;;15.03;11.50;;;12.60;99.90;;;12.64;68.82;94475.47;5080132;28;20593;-59
2023/10/20 02:58:40;;;;;;;21.23;11.90;;;12.60;99.90;;;12.60;68.24;94471.53;5078758;28;20529;-59
2023/10/20 03:01:09;;;;;;;18.43;11.97;;;12.50;99.90;;;12.54;68.31;94462.44;5080274;28;20470;-55
2023/10/20 03:03:36;;;;;;;16.30;10.60;;;12.40;99.90;;;12.49;68.43;94459.47;5078545;28;20515;-59
2023/10/20 03:06:04;;;;;;;14.63;11.70;;;12.40;99.90;;;12.47;68.50;94457.00;5080540;28;20558;-59
2023/10/20 03:08:33;;;;;;;13.90;10.93;;;12.30;99.90;;;12.47;68.29;94467.53;5078634;28;20442;-60
2023/10/20 03:11:00;;;;;;;18.73;11.23;;;12.40;99.90;;;12.47;68.66;94466.69;5080220;28;20473;-59
2023/10/20 03:13:27;;;;;;;15.93;10.97;;;12.40;99.90;;;12.46;68.83;94472.97;5078232;28;20484;-56
2023/10/20 03:15:55;;;;;;;19.03;11.10;;;12.40;99.90;;;12.43;68.81;94466.22;5080159;28;21874;-61
2023/10/20 03:18:23;;;;;;;18.37;13.00;;;12.30;99.90;;;12.40;69.16;94466.53;5077575;28;20940;-59
2023/10/20 03:20:50;;;;;;;15.23;11.23;;;12.30;99.90;;;12.39;69.14;94470.16;5080459;28;20439;-57
2023/10/20 03:23:18;;;;;;;17.50;11.47;;;12.30;99.90;;;12.39;69.07;94470.16;5078693;28;20930;-57
2023/10/20 03:25:47;;;;;;;20.57;11.40;;;12.30;99.90;;;12.36;68.92;94468.66;5079828;28;20526;-60
2023/10/20 03:28:14;;;;;;;16.40;10.90;;;12.20;99.90;;;12.35;68.99;94466.19;5074223;28;20451;-59
2023/10/20 03:30:42;;;;;;;12.43;11.13;;;12.30;99.90;;;12.32;68.90;94474.44;5079998;28;21150;-58
2023/10/20 03:33:10;;;;;;;14.83;11.20;;;12.20;99.90;;;12.31;69.36;94473.59;5077551;28;20532;-57
2023/10/20 03:35:38;;;;;;;17.20;11.17;;;12.20;99.90;;;12.32;69.35;94471.78;5075668;28;20451;-55
2023/10/20 03:38:06;;;;;;;14.20;11.17;;;12.20;99.90;;;12.29;69.37;94469.47;5076865;28;20508;-60
2023/10/20 03:40:36;;;;;;;18.37;12.20;;;12.20;99.90;;;12.28;69.05;94457.25;5079243;28;20917;-57
2023/10/20 03:43:05;;;;;;;16.73;11.67;;;12.20;99.90;;;12.24;69.38;94454.13;5079360;28;20451;-56
2023/10/20 03:45:39;;;;;;;16.00;12.10;;;12.20;99.90;;;12.23;69.51;94449.03;5078258;28;20980;-58
2023/10/20 03:48:08;;;;;;;18.67;11.90;;;12.10;99.90;;;12.17;69.01;94447.84;5080200;28;20481;-61
2023/10/20 03:50:37;;;;;;;32.13;13.00;;;12.10;99.90;;;12.13;69.33;94439.44;5077440;28;20462;-56
2023/10/20 03:53:05;;;;;;;18.73;11.07;;;12.10;99.90;;;12.12;69.62;94442.22;5077744;28;20456;-57
2023/10/20 03:55:34;;;;;;;23.33;14.27;;;12.00;99.90;;;12.10;69.27;94438.91;5080160;28;20449;-56
2023/10/20 03:58:02;;;;;;;20.43;12.40;;;12.00;99.90;;;12.10;69.84;94438.91;5077118;28;20482;-59
2023/10/20 04:00:32;;;;;;;16.93;11.97;;;12.00;99.90;;;12.09;69.71;94448.63;5080589;28;21222;-57
2023/10/20 04:02:59;;;;;;;14.50;12.33;;;12.00;99.90;;;12.08;69.57;94441.69;5075757;28;20493;-60
2023/10/20 04:05:26;;;;;;;22.43;13.57;;;12.00;99.90;;;12.07;69.32;94429.53;5080474;28;20822;-58
2023/10/20 04:07:54;;;;;;;17.23;10.97;;;12.00;99.90;;;12.06;69.28;94422.59;5077207;28;20925;-57
2023/10/20 04:10:21;;;;;;;21.07;12.90;;;12.00;99.90;;;12.06;69.48;94432.31;5079941;28;20454;-58
2023/10/20 04:12:48;;;;;;;24.60;13.37;;;12.00;99.90;;;12.03;69.56;94433.47;5077520;28;20545;-58
2023/10/20 04:15:17;;;;;;;17.33;12.67;;;12.00;99.90;;;12.02;69.57;94437.06;5077359;28;20450;-57
2023/10/20 04:17:52;;;;;;;20.23;13.07;;;11.90;99.90;;;11.99;69.77;94443.50;5075704;28;20497;-56
2023/10/20 04:20:20;;;;;;;18.00;13.50;;;11.90;99.90;;;11.99;69.41;94469.00;5076638;28;20442;-58
2023/10/20 04:22:51;;;;;;;20.80;13.30;;;11.90;99.90;;;11.98;69.91;94462.13;5076495;28;20562;-60
2023/10/20 04:25:19;;;;;;;25.80;14.13;;;11.90;99.90;;;12.00;69.54;94470.69;5082196;28;20457;-60
2023/10/20 04:27:50;;;;;;;18.13;13.23;;;11.90;99.90;;;12.02;69.94;94458.16;5080939;28;21050;-59
2023/10/20 04:52:58;;;;;;;16.80;11.23;;;11.90;99.90;;;11.91;69.40;94439.97;5079184;28;20544;-60
2023/10/20 04:58:16;;;;;;;21.70;12.90;;;11.80;99.90;;;11.88;69.27;94442.91;5083667;28;20542;-59
2023/10/20 05:00:44;;;;;;;16.87;12.77;;;11.80;99.90;;;11.88;69.26;94446.38;5082526;28;20450;-59
2023/10/20 05:03:29;;;;;;;33.63;14.20;;;11.80;99.90;;;11.86;69.20;94445.72;5079565;28;20461;-60
2023/10/20 05:06:12;;;;;;;18.00;12.47;;;11.80;99.90;;;11.87;69.65;94444.75;5083908;28;20552;-59
2023/10/20 05:08:39;;;;;;;18.40;13.40;;;11.80;99.90;;;11.89;69.42;94449.84;5080216;28;20834;-55
2023/10/20 05:11:07;;;;;;;18.37;12.40;;;11.80;99.90;;;11.89;69.80;94455.13;5082624;28;20987;-55
2023/10/20 05:13:34;;;;;;;29.70;14.17;;;11.80;99.90;;;11.89;69.61;94453.31;5078568;28;20640;-55
2023/10/20 05:16:01;;;;;;;25.03;13.93;;;11.80;99.90;;;11.92;69.33;94439.00;5080277;28;20473;-55
2023/10/20 05:18:29;;;;;;;28.37;14.63;;;11.80;99.90;;;11.91;69.34;94461.88;5083017;28;20996;-57
2023/10/20 05:21:04;;;;;;;22.00;14.87;;;11.80;99.90;;;11.90;69.60;94460.22;5083070;28;20470;-56
2023/10/20 05:23:31;;;;;;;19.20;13.20;;;11.80;99.90;;;11.95;69.60;94483.50;5083254;28;20842;-57
2023/10/20 05:25:59;;;;;;;24.87;16.43;;;11.90;99.90;;;12.00;69.68;94481.22;5080797;28;20470;-59
2023/10/20 05:28:26;;;;;;;31.53;17.73;;;11.90;99.90;;;12.04;69.51;94487.84;5082665;28;20451;-59
2023/10/20 05:30:54;;;;;;;34.80;20.37;;;12.00;99.90;;;12.08;69.98;94478.59;5083828;28;21236;-59
2023/10/20 05:33:21;;;;;;;29.20;19.27;;;12.00;99.90;;;12.15;69.33;94484.91;5079059;28;20486;-58
2023/10/20 05:35:49;;;;;;;27.70;18.83;;;12.00;99.90;;;12.21;69.77;94480.81;5072459;28;20496;-57
2023/10/20 05:38:17;;;;;;;25.70;17.77;;;12.10;99.90;;;12.25;69.53;94483.94;5070516;28;21054;-60
2023/10/20 05:40:46;;;;;;;35.30;18.47;;;12.20;99.90;;;12.31;69.64;94483.31;5075383;28;20455;-58
2023/10/20 05:43:13;;;;;;;24.47;19.27;;;12.20;99.90;;;12.39;69.75;94485.97;5073677;28;20563;-59
2023/10/20 05:45:40;;;;;;;29.73;18.00;;;12.30;99.90;;;12.47;69.28;94486.00;5074106;28;20606;-60
2023/10/20 05:48:08;;;;;;;39.30;17.60;;;12.40;99.90;;;12.53;68.79;94488.00;5079719;28;20462;-58
2023/10/20 05:50:36;;;;;;;24.70;15.50;;;12.40;99.90;;;12.58;68.87;94492.78;5081371;28;20493;-56
2023/10/20 05:53:04;;;;;;;27.50;17.87;;;12.50;99.90;;;12.69;68.50;94486.38;5079836;28;20522;-59
2023/10/20 05:55:33;;;;;;;39.60;18.00;;;12.60;99.90;;;12.82;68.57;94475.34;5081648;28;20515;-59
2023/10/20 05:58:00;;;;;;;29.53;17.27;;;12.60;99.90;;;13.04;68.28;94485.28;5082729;28;20490;-59
2023/10/20 06:00:28;;;;;;;36.00;16.07;;;12.80;99.90;;;13.24;67.47;94483.09;5080423;28;20895;-56
2023/10/20 06:02:55;;;;;;;31.50;16.50;;;13.00;99.90;;;13.47;67.54;94485.09;5081478;28;20500;-59
2023/10/20 06:05:23;;;;;;;30.43;15.23;;;13.20;99.90;;;13.70;66.40;94490.53;5080593;28;20548;-59
2023/10/20 06:07:50;;;;;;;30.03;16.33;;;13.50;99.90;;;13.93;65.95;94495.09;5081225;28;20596;-56
2023/10/20 06:10:22;;;;;;;31.43;15.90;;;13.60;99.90;;;14.19;66.22;94500.16;5080423;28;20540;-57
2023/10/20 06:12:53;;;;;;;21.43;15.87;;;13.90;99.90;;;14.57;65.20;94508.22;5081543;28;20853;-56
2023/10/20 06:15:20;;;;;;;22.93;16.03;;;14.20;99.90;;;14.86;64.07;94509.44;5079340;28;20983;-60
2023/10/20 06:17:49;;;;;;;30.13;14.83;;;14.50;99.90;;;15.16;63.52;94491.84;5081659;28;20533;-55
2023/10/20 06:20:16;;;;;;;33.17;15.97;;;14.80;99.90;;;15.51;62.91;94484.25;5079732;28;20816;-59
2023/10/20 06:22:44;;;;;;;21.00;15.93;;;15.10;99.90;;;15.92;62.55;94496.31;5081335;28;20574;-60
2023/10/20 06:25:13;;;;;;;40.00;17.13;;;15.50;99.90;;;16.25;61.34;94491.50;5079229;28;20461;-57
2023/10/20 06:27:43;;;;;;;21.00;16.27;;;15.80;99.90;;;16.66;60.58;94495.44;5080845;28;20467;-57
2023/10/20 06:30:19;;;;;;;28.77;16.97;;;16.20;99.50;;;17.09;60.40;94487.56;5079161;28;20451;-60
2023/10/20 06:32:52;;;;;;;26.00;17.50;;;16.60;99.40;;;17.55;59.64;94476.53;5082205;28;20530;-59
2023/10/20 06:35:20;;;;;;;34.90;17.73;;;17.10;99.00;;;18.07;59.23;94482.41;5082039;28;20520;-58
2023/10/20 06:37:55;;;;;;;29.40;18.10;;;17.60;98.30;;;18.51;57.94;94479.56;5078238;28;20502;-59
2023/10/20 06:40:22;;;;;;;26.27;17.43;;;18.00;97.40;;;18.98;57.89;94481.41;5080099;28;20446;-56
2023/10/20 06:42:50;;;;;;;40.63;18.17;;;18.40;97.20;;;19.36;56.53;94485.34;5078426;28;20490;-60
2023/10/20 06:45:18;;;;;;;31.30;16.37;;;18.80;96.00;;;19.75;56.27;94496.25;5080275;28;20458;-61
2023/10/20 06:47:46;;;;;;;18.33;14.57;;;19.20;95.90;;;20.15;54.84;94496.25;5079207;28;20483;-60
2023/10/20 06:50:13;;;;;;;24.63;13.40;;;19.60;94.40;;;20.50;55.07;94488.75;5079664;28;20455;-61
2023/10/20 06:52:41;;;;;;;20.37;13.70;;;20.00;94.50;;;20.90;54.16;94488.63;5078774;28;20471;-57
2023/10/20 06:55:09;;;;;;;23.30;14.30;;;20.40;93.70;;;21.18;53.41;94489.28;5080513;28;21008;-59
2023/10/20 06:57:36;;;;;;;21.00;15.17;;;20.70;92.60;;;21.27;52.27;94485.31;5078283;28;20589;-60
2023/10/20 07:00:06;;;;;;;23.47;14.90;;;20.90;90.90;;;21.25;52.19;94485.53;5080535;28;20446;-58
2023/10/20 07:02:35;;;;;;;20.60;14.20;;;20.90;90.60;;;21.18;51.57;94481.25;5078713;28;20552;-57
2023/10/20 07:05:05;;;;;;;26.30;15.00;;;20.90;89.40;;;20.97;51.62;94491.25;5080168;28;20875;-58
2023/10/20 07:07:32;;;;;;;18.93;12.70;;;20.80;89.30;;;20.89;51.57;94491.50;5077673;28;20485;-60
2023/10/20 07:09:59;;;;;;;25.63;15.20;;;20.70;88.30;;;21.00;51.84;94492.69;5078814;28;20455;-57
2023/10/20 07:12:27;;;;;;;33.17;14.73;;;20.70;88.80;;;21.09;51.90;94497.56;5080304;28;20852;-54
2023/10/20 07:14:54;;;;;;;19.73;15.10;;;20.80;88.90;;;21.17;51.42;94503.69;5078734;28;20455;-59
2023/10/20 07:17:21;;;;;;;26.63;15.30;;;20.90;87.70;;;21.15;50.88;94487.88;5080329;28;20586;-59
2023/10/20 07:19:50;;;;;;;25.37;16.30;;;20.90;86.40;;;21.06;50.88;94481.94;5077790;28;20486;-56
2023/10/20 07:22:18;;;;;;;20.70;15.63;;;20.90;85.90;;;20.88;50.95;94484.50;5080427;28;20470;-60
2023/10/20 07:24:47;;;;;;;23.57;16.80;;;20.70;85.70;;;20.66;50.66;94487.47;5077820;28;20516;-59
2023/10/20 07:27:15;;;;;;;25.93;16.30;;;20.60;85.00;;;20.46;51.30;94482.19;5079873;28;20474;-56
2023/10/20 07:29:42;;;;;;;23.13;16.50;;;20.40;85.70;;;20.42;51.68;94487.13;5076762;28;20462;-60
2023/10/20 07:32:10;;;;;;;31.60;19.57;;;20.30;86.50;;;20.54;51.66;94483.78;5079959;28;20471;-56
2023/10/20 07:34:37;;;;;;;36.40;18.43;;;20.40;86.60;;;20.60;51.42;94493.63;5077026;28;20476;-55
2023/10/20 07:37:06;;;;;;;30.67;19.80;;;20.50;86.00;;;20.55;49.14;94494.28;5080215;28;20861;-60
2023/10/20 07:39:34;;;;;;;41.30;19.33;;;20.40;82.30;;;20.47;50.66;94499.84;5076993;28;20453;-56
2023/10/20 07:42:02;;;;;;;33.63;19.97;;;20.30;84.30;;;20.53;50.24;94474.97;5079421;28;20481;-57
2023/10/20 07:44:29;;;;;;;42.57;20.20;;;20.30;83.60;;;20.67;50.55;94493.66;5077010;28;20580;-60
2023/10/20 07:46:57;;;;;;;37.30;18.30;;;20.50;84.70;;;20.91;50.47;94486.75;5080254;28;20576;-60
2023/10/20 07:49:24;;;;;;;54.00;19.50;;;20.60;85.00;;;21.26;50.14;94507.75;5076602;28;20462;-60
2023/10/20 07:51:52;;;;;;;35.73;21.23;;;20.90;85.00;;;21.63;47.38;94498.06;5080219;28;20511;-60
2023/10/20 07:54:20;;;;;;;37.13;18.70;;;21.20;79.50;;;21.92;48.88;94508.31;5077301;28;20482;-56
2023/10/20 07:56:48;;;;;;;37.37;18.77;;;21.40;81.90;;;22.22;48.37;94510.34;5076367;28;20534;-56
2023/10/20 07:59:17;;;;;;;27.00;17.47;;;21.70;81.60;;;22.53;48.39;94507.56;5076794;28;20509;-60
2023/10/20 08:01:45;;;;;;;46.40;18.47;;;22.00;81.30;;;22.84;47.47;94497.72;5076685;28;20528;-59
2023/10/20 08:04:12;;;;;;;28.80;16.87;;;22.30;79.00;;;22.94;46.70;94501.72;5079931;28;20450;-61
2023/10/20 08:06:39;;;;;;;22.03;16.80;;;22.50;78.60;;;22.78;46.10;94490.56;5076835;28;20463;-60
2023/10/20 08:09:08;;;;;;;34.00;18.77;;;22.50;75.90;;;22.73;47.08;94495.78;5076585;28;20455;-58
2023/10/20 08:11:37;;;;;;;21.67;14.83;;;22.40;75.80;;;22.75;46.70;94493.69;5075975;28;20466;-57
2023/10/20 08:14:05;;;;;;;22.27;13.63;;;22.40;75.80;;;22.80;45.79;94490.34;5076632;28;20462;-57
2023/10/20 08:16:33;;;;;;;18.63;13.23;;;22.40;75.10;;;22.80;46.44;94496.50;5076541;28;20462;-60
2023/10/20 08:19:00;;;;;;;34.10;12.90;;;22.50;75.20;;;22.94;46.04;94501.72;5076466;28;20526;-57
2023/10/20 08:21:29;;;;;;;19.90;12.67;;;22.50;75.00;;;23.12;46.54;94492.88;5079589;28;20473;-56
2023/10/20 08:23:58;;;;;;;16.63;12.10;;;22.70;75.50;;;23.39;45.78;94498.66;5079840;28;20538;-56
2023/10/20 08:26:25;;;;;;;24.53;12.10;;;22.90;74.40;;;23.70;45.21;94497.59;5075868;28;20556;-60
2023/10/20 08:28:54;;;;;;;15.13;10.70;;;23.10;74.30;;;23.97;44.64;94500.69;5080465;28;20458;-56
2023/10/20 08:31:22;;;;;;;14.57;10.20;;;23.40;72.50;;;24.24;43.60;94489.47;5076987;28;20543;-56
2023/10/20 08:33:51;;;;;;;14.77;10.57;;;23.70;71.30;;;24.55;43.48;94476.69;5080409;28;20453;-55
2023/10/20 08:36:21;;;;;;;15.70;10.27;;;24.00;70.90;;;24.88;43.46;94472.56;5080755;28;20553;-56
2023/10/20 08:38:50;;;;;;;31.53;9.50;;;24.30;70.10;;;25.28;43.39;94477.06;5081338;28;20494;-54
2023/10/20 08:41:18;;;;;;;19.10;9.90;;;24.60;70.20;;;25.63;42.05;94486.88;5076248;28;20517;-57
2023/10/20 08:43:45;;;;;;;19.67;11.30;;;25.00;68.10;;;25.99;41.61;94476.69;5080422;28;20911;-56
2023/10/20 08:46:16;;;;;;;19.17;11.53;;;25.30;67.20;;;26.35;41.13;94474.53;5076799;28;20634;-56
2023/10/20 08:48:44;;;;;;;16.43;10.47;;;25.70;65.80;;;26.68;40.06;94477.41;5076467;28;21010;-60
2023/10/20 08:51:13;;;;;;;34.57;12.10;;;25.90;63.90;;;26.90;40.28;94469.34;5079583;28;20526;-56
2023/10/20 08:53:41;;;;;;;12.53;10.30;;;26.20;63.90;;;27.08;40.43;94470.88;5076733;28;20537;-60
2023/10/20 08:56:11;;;;;;;22.90;11.90;;;26.40;63.40;;;27.31;39.48;94464.38;5079815;28;20480;-56
2023/10/20 08:58:39;;;;;;;15.90;10.30;;;26.60;62.50;;;27.58;39.32;94471.69;5079545;28;20484;-55
2023/10/20 09:01:06;;;;;;;22.60;11.03;;;26.90;61.30;;;27.85;38.55;94458.94;5076943;28;20971;-57
2023/10/20 09:03:43;;;;;;;15.67;11.13;;;27.20;60.00;;;28.12;36.55;94454.56;5079820;28;20449;-60
2023/10/20 09:06:12;;;;;;;15.50;11.43;;;27.40;58.10;;;28.29;37.99;94454.41;5078232;28;20466;-58
2023/10/20 09:08:39;;;;;;;16.63;10.60;;;27.60;59.30;;;28.40;37.97;94454.22;5078375;28;20456;-56
2023/10/20 09:11:11;;;;;;;25.60;10.27;;;27.70;58.70;;;28.53;37.52;94455.63;5077658;28;20470;-57
2023/10/20 09:13:39;;;;;;;29.80;10.83;;;27.90;58.20;;;28.69;37.38;94447.59;5080805;28;20945;-60
2023/10/20 09:16:08;;;;;;;20.70;10.13;;;28.00;57.80;;;28.77;37.08;94444.41;5081486;28;20466;-60
2023/10/20 09:18:45;;;;;;;20.83;9.83;;;28.10;57.20;;;28.91;35.85;94442.84;5080956;28;20864;-55
2023/10/20 09:21:14;;;;;;;17.30;9.80;;;28.20;56.60;;;29.12;36.53;94442.88;5082669;28;20472;-56
2023/10/20 09:23:41;;;;;;;20.97;10.87;;;28.40;55.90;;;29.22;36.67;94437.53;5079817;28;20446;-57
2023/10/20 09:26:09;;;;;;;19.13;9.90;;;28.50;56.20;;;29.32;35.89;94432.13;5082688;28;20465;-56
2023/10/20 09:28:36;;;;;;;21.67;11.17;;;28.70;55.50;;;29.47;36.40;94434.06;5079756;28;20455;-56
2023/10/20 09:31:03;;;;;;;22.10;10.87;;;28.80;55.60;;;29.46;35.43;94423.47;5081944;28;20465;-60
2023/10/20 09:33:31;;;;;;;13.47;9.23;;;28.80;55.30;;;29.21;36.26;94425.06;5080153;28;20474;-60
2023/10/20 09:35:59;;;;;;;26.20;11.03;;;28.60;55.50;;;28.82;36.53;94416.56;5082191;28;20466;-61
2023/10/20 09:38:27;;;;;;;23.77;10.03;;;28.30;55.30;;;28.41;36.82;94417.13;5080013;28;20580;-59
2023/10/20 09:41:11;;;;;;;28.73;11.60;;;28.00;55.10;;;27.99;36.82;94409.88;5081681;28;20446;-59
2023/10/20 09:43:41;;;;;;;17.80;9.63;;;27.60;55.30;;;27.57;37.87;94402.50;5082859;28;20485;-55
2023/10/20 09:46:15;;;;;;;19.00;9.40;;;27.20;56.60;;;27.27;38.48;94409.25;5079920;28;20474;-55
2023/10/20 09:48:42;;;;;;;18.13;11.03;;;26.90;57.30;;;26.95;38.70;94415.41;5080689;28;20469;-60
2023/10/20 09:51:11;;;;;;;18.27;11.00;;;26.50;57.50;;;26.65;38.36;94403.19;5079685;28;21009;-59
2023/10/20 09:53:38;;;;;;;18.83;9.60;;;26.30;57.70;;;26.40;39.09;94385.63;5082697;28;20537;-55
2023/10/20 09:56:06;;;;;;;14.93;9.27;;;26.00;58.10;;;26.24;39.64;94391.88;5081115;28;20492;-56
2023/10/20 09:58:36;;;;;;;26.23;11.67;;;25.80;58.90;;;26.17;38.82;94381.28;5079995;28;21240;-55
2023/10/20 10:01:03;;;;;;;21.30;11.90;;;25.70;58.40;;;26.17;39.25;94372.38;5080074;28;20473;-60
2023/10/20 10:03:37;;;;;;;20.37;10.80;;;25.70;59.10;;;26.21;39.64;94366.25;5080098;28;20489;-59
2023/10/20 10:06:10;;;;;;;18.30;11.63;;;25.70;59.20;;;26.26;39.71;94373.59;5079510;28;20941;-57
2023/10/20 10:08:39;;;;;;;26.83;10.80;;;25.70;59.40;;;26.33;39.83;94370.69;5081409;28;20441;-60
2023/10/20 10:11:21;;;;;;;19.10;9.97;;;25.80;59.10;;;26.35;38.95;94363.16;5078740;28;20510;-55
2023/10/20 10:13:55;;;;;;;16.73;8.50;;;25.80;58.90;;;26.23;39.40;94355.22;5079984;28;20533;-59
2023/10/20 10:16:22;;;;;;;19.23;9.50;;;25.70;59.00;;;26.06;39.56;94352.56;5079515;28;21358;-60
2023/10/20 10:18:54;;;;;;;15.27;8.53;;;25.60;59.00;;;25.91;39.59;94355.81;5079607;28;20486;-57
2023/10/20 10:21:30;;;;;;;16.57;9.10;;;25.50;59.00;;;25.72;39.69;94353.41;5080419;28;20461;-56
2023/10/20 10:24:15;;;;;;;21.80;9.97;;;25.40;59.10;;;25.64;39.88;94345.75;5081745;28;20437;-62
2023/10/20 10:26:56;;;;;;;50.10;9.80;;;25.20;59.50;;;25.64;39.99;94337.69;5079601;28;20519;-59
2023/10/20 10:29:48;;;;;;;22.13;8.93;;;25.20;59.90;;;25.80;40.10;94351.38;5078932;28;20438;-59
2023/10/20 10:32:17;;;;;;;17.77;8.10;;;25.30;60.10;;;26.01;39.83;94344.38;5080403;28;21037;-56
2023/10/20 10:34:45;;;;;;;25.17;7.57;;;25.50;59.90;;;26.23;39.79;94342.53;5079551;28;20537;-56
2023/10/20 10:37:13;;;;;;;20.30;8.00;;;25.70;59.70;;;26.47;38.89;94340.38;5079792;28;20477;-60
2023/10/20 10:39:41;;;;;;;28.10;7.73;;;25.90;58.70;;;26.53;38.09;94340.44;5079193;28;20546;-56